Weather at Campo di Volo Valbelice

Public forecast

Using degrees Celsius for public forecast. Weather courtesy of forecast.io.

Closest aviation weather report (METAR) to Campo di Volo Valbelice

Closest report is Vincenzo Florio Airport Trapani-Birgi, 19.7 nm (36.5 km) NW. Retrieved 2020/10/25 03:55 UTC (55 minutes ago):

LICT 250355Z 30010KT CAVOK 19/16 Q1020

Closest aviation forecast (TAF) to Campo di Volo Valbelice

Forecast is more than 12 hours old.

Closest forecast is Vincenzo Florio Airport Trapani-Birgi, 19.7 nm (36.5 km) NW. Retrieved 2019/01/11 09:24 UTC (2 years ago):

TAF TAF LICT 110800Z 1109/1121 33012KT 9999 SCT025